Mc Clellandtown, Pennsylvania
Current Conditions -  °F | °C
As of 4:53 AM on Sunday 26 Oct 2014 (Local Time) from KMGW Reporting Station
Clear Clear  
Wind Chill: 53°   Ceiling: Unl
Heat Index: 53°   Visibility: 10mi
Dew Point: 29°   Wind: 0mph
Humidity: 40%   Direction: NA
Pressure: 29.85"   Gusts: NA
Location:  39.8879°N, 79.8634°W
Report Text: KMGW 260853Z AUTO 00000KT 10SM CLR 12/M02 A2985 RMK AO2 SLP105 T01171017 52006 TSNO
Loading
Personal Weather Stations






























Interactive Weather Map
Tropical Storm Tracking
New forecast layout! Learn more

10-Day Weather Forecast

Advertisements
Track Severe Weather on mobile